createdAt,value
2018-09-08T00:00:45.227Z,21.35
2018-09-08T00:05:38.339Z,20.20
2018-09-08T00:10:31.390Z,20.72
2018-09-08T00:15:29.754Z,20.57
2018-09-08T00:20:28.581Z,20.68
2018-09-08T00:25:27.047Z,22.48
2018-09-08T00:30:20.219Z,22.27
2018-09-08T00:35:13.306Z,23.20
2018-09-08T00:40:06.376Z,21.30
2018-09-08T00:44:59.436Z,20.25
2018-09-08T00:49:52.510Z,22.13
2018-09-08T00:54:52.290Z,19.27
2018-09-08T00:59:45.350Z,19.12
2018-09-08T01:04:38.732Z,19.00
2018-09-08T01:09:31.712Z,20.27
2018-09-08T01:14:24.722Z,18.60
2018-09-08T01:19:17.710Z,18.90
2018-09-08T01:24:10.643Z,17.92
2018-09-08T01:29:03.718Z,19.35
2018-09-08T01:33:56.770Z,19.60
2018-09-08T01:38:49.806Z,18.32
2018-09-08T01:43:42.936Z,19.05
2018-09-08T01:48:36.191Z,18.30
2018-09-08T01:53:29.234Z,17.40
2018-09-08T01:58:22.283Z,17.20
2018-09-08T02:03:15.536Z,17.95
2018-09-08T02:08:08.628Z,17.60
2018-09-08T02:13:01.749Z,20.10
2018-09-08T02:17:54.811Z,17.37
2018-09-08T02:22:47.854Z,18.57
2018-09-08T02:27:41.159Z,19.15
2018-09-08T02:32:34.310Z,18.80
2018-09-08T02:37:27.297Z,19.05
2018-09-08T02:42:20.436Z,19.32
2018-09-08T02:47:13.592Z,18.42
2018-09-08T02:52:05.324Z,18.00
2018-09-08T02:56:56.916Z,21.70
2018-09-08T03:01:48.633Z,21.62
2018-09-08T03:06:40.327Z,21.57
2018-09-08T03:11:31.975Z,20.57
2018-09-08T03:16:23.699Z,20.10
2018-09-08T03:21:15.319Z,21.00
2018-09-08T03:26:06.996Z,19.65
2018-09-08T03:30:58.547Z,20.62
2018-09-08T03:35:50.575Z,20.82
2018-09-08T03:40:42.280Z,21.62
2018-09-08T03:45:33.945Z,21.80
2018-09-08T03:50:25.700Z,23.80
2018-09-08T03:55:17.263Z,19.20
2018-09-08T04:00:08.850Z,18.57
2018-09-08T04:05:01.894Z,20.08
2018-09-08T04:09:55.040Z,18.92
2018-09-08T04:14:48.195Z,20.80
2018-09-08T04:19:41.155Z,19.17
2018-09-08T04:24:34.193Z,23.02
2018-09-08T04:29:27.379Z,19.23
2018-09-08T04:34:20.283Z,19.10
2018-09-08T04:39:13.386Z,19.07
2018-09-08T04:44:06.596Z,19.07
2018-09-08T04:49:00.711Z,20.10
2018-09-08T04:53:53.786Z,19.62
2018-09-08T04:58:46.806Z,19.65
2018-09-08T05:03:39.726Z,20.08
2018-09-08T05:08:32.785Z,19.75
2018-09-08T05:13:25.895Z,21.57
2018-09-08T05:18:19.039Z,18.70
2018-09-08T05:23:12.725Z,19.12
2018-09-08T05:28:05.674Z,18.60
2018-09-08T05:32:59.155Z,18.45
2018-09-08T05:37:52.903Z,17.10
2018-09-08T05:42:46.110Z,18.77
2018-09-08T05:47:39.658Z,17.30
2018-09-08T05:52:32.982Z,16.77
2018-09-08T05:57:28.366Z,16.23
2018-09-08T06:02:23.088Z,15.25
2018-09-08T06:07:20.304Z,16.87
2018-09-08T06:12:20.609Z,15.98
2018-09-08T06:17:15.304Z,15.30
2018-09-08T06:22:11.522Z,15.75
2018-09-08T06:27:04.912Z,14.93
2018-09-08T06:31:58.860Z,15.10
2018-09-08T06:36:54.810Z,15.95
2018-09-08T06:41:49.009Z,14.65
2018-09-08T06:46:42.192Z,14.63
2018-09-08T06:51:36.222Z,14.18
2018-09-08T06:56:30.008Z,13.98
2018-09-08T07:01:23.228Z,16.50
2018-09-08T07:06:16.373Z,14.78
2018-09-08T07:11:09.965Z,15.05
2018-09-08T07:16:05.358Z,14.10
2018-09-08T07:20:59.614Z,14.73
2018-09-08T07:25:54.348Z,14.30
2018-09-08T07:30:47.462Z,14.83
2018-09-08T07:35:40.788Z,14.20
2018-09-08T07:40:33.767Z,15.13
2018-09-08T07:45:26.865Z,14.23
2018-09-08T07:50:20.043Z,15.00
2018-09-08T07:55:13.273Z,14.20
2018-09-08T08:00:06.581Z,14.93
2018-09-08T08:04:59.602Z,15.05
2018-09-08T08:09:52.609Z,14.10
2018-09-08T08:14:45.680Z,14.28
2018-09-08T08:19:39.022Z,12.95
2018-09-08T08:24:32.037Z,14.30
2018-09-08T08:29:26.126Z,15.68
2018-09-08T08:34:19.396Z,14.10
2018-09-08T08:39:12.493Z,13.65
2018-09-08T08:44:05.500Z,14.80
2018-09-08T08:48:58.741Z,14.03
2018-09-08T08:54:02.700Z,14.45
2018-09-08T08:58:55.748Z,14.93
2018-09-08T09:03:48.712Z,14.95
2018-09-08T09:08:44.898Z,14.83
2018-09-08T09:13:37.600Z,14.90
2018-09-08T09:18:41.968Z,12.78
2018-09-08T09:24:43.740Z,13.53
2018-09-08T09:29:36.379Z,16.40
2018-09-08T09:34:29.467Z,15.35
2018-09-08T09:39:27.760Z,15.00
2018-09-08T09:44:20.954Z,16.82
2018-09-08T09:49:14.248Z,14.43
2018-09-08T09:54:07.313Z,13.53
2018-09-08T09:59:00.963Z,14.10
2018-09-08T10:03:53.925Z,14.18
2018-09-08T10:08:46.931Z,14.30
2018-09-08T10:13:39.940Z,15.43
2018-09-08T10:18:33.021Z,15.38
2018-09-08T10:23:26.231Z,14.30
2018-09-08T10:28:26.750Z,14.75
2018-09-08T10:33:21.134Z,14.95
2018-09-08T10:38:14.400Z,15.93
2018-09-08T10:43:07.434Z,16.37
2018-09-08T10:48:00.405Z,13.62
2018-09-08T10:52:53.587Z,14.70
2018-09-08T10:57:46.607Z,14.23
2018-09-08T11:02:40.013Z,13.72
2018-09-08T11:07:32.831Z,13.80
2018-09-08T11:12:25.906Z,13.40
2018-09-08T11:17:18.940Z,13.93
2018-09-08T11:22:12.164Z,13.32
2018-09-08T11:27:05.432Z,24.98
2018-09-08T11:31:58.647Z,14.15
2018-09-08T11:36:51.703Z,12.93
2018-09-08T11:41:45.318Z,12.90
2018-09-08T11:46:38.307Z,14.78
2018-09-08T11:51:31.744Z,12.53
2018-09-08T11:56:24.824Z,13.78
2018-09-08T12:01:17.863Z,13.35
2018-09-08T12:06:11.023Z,14.27
2018-09-08T12:11:04.143Z,14.98
2018-09-08T12:15:57.146Z,12.90
2018-09-08T12:20:50.381Z,13.53
2018-09-08T12:25:43.435Z,12.07
2018-09-08T12:30:36.563Z,11.70
2018-09-08T12:35:30.617Z,12.43
2018-09-08T12:40:23.634Z,11.38
2018-09-08T12:45:16.771Z,11.38
2018-09-08T12:50:09.923Z,11.95
2018-09-08T12:55:02.936Z,16.15
2018-09-08T12:59:56.017Z,13.80
2018-09-08T13:04:49.046Z,13.98
2018-09-08T13:09:42.090Z,13.83
2018-09-08T13:14:35.322Z,14.47
2018-09-08T13:19:29.569Z,12.78
2018-09-08T13:24:23.025Z,12.88
2018-09-08T13:29:16.436Z,11.97
2018-09-08T13:34:09.497Z,12.63
2018-09-08T13:39:02.703Z,12.50
2018-09-08T13:43:55.835Z,12.10
2018-09-08T13:48:49.030Z,12.37
2018-09-08T13:53:42.973Z,12.85
2018-09-08T13:58:36.225Z,12.60
2018-09-08T14:03:29.468Z,11.95
2018-09-08T14:08:22.726Z,11.63
2018-09-08T14:13:15.783Z,11.48
2018-09-08T14:18:10.608Z,11.78
2018-09-08T14:23:03.880Z,11.05
2018-09-08T14:27:57.134Z,12.40
2018-09-08T14:32:50.915Z,14.00
2018-09-08T14:37:44.328Z,13.55
2018-09-08T14:42:37.912Z,11.63
2018-09-08T14:52:46.479Z,12.15
2018-09-08T14:57:39.539Z,13.22
2018-09-08T15:02:32.580Z,13.43
2018-09-08T15:07:25.659Z,12.95
2018-09-08T15:12:18.758Z,14.05
2018-09-08T15:17:12.173Z,12.47
2018-09-08T15:22:05.254Z,13.98
2018-09-08T15:26:58.585Z,12.30
2018-09-08T15:31:51.835Z,13.80
2018-09-08T15:36:45.057Z,13.58
2018-09-08T15:41:38.339Z,15.28
2018-09-08T15:46:31.677Z,13.75
2018-09-08T15:51:24.991Z,13.08
2018-09-08T15:56:18.134Z,13.50
2018-09-08T16:01:11.708Z,14.80
2018-09-08T16:06:05.243Z,18.32
2018-09-08T16:10:58.606Z,13.08
2018-09-08T16:15:52.091Z,13.88
2018-09-08T16:20:45.462Z,13.22
2018-09-08T16:25:38.844Z,13.93
2018-09-08T16:30:32.207Z,13.78
2018-09-08T16:35:26.081Z,15.35
2018-09-08T16:40:19.591Z,14.58
2018-09-08T16:45:12.882Z,14.15
2018-09-08T16:50:06.243Z,15.30
2018-09-08T16:54:59.881Z,14.90
2018-09-08T16:59:53.211Z,14.28
2018-09-08T17:04:46.384Z,15.70
2018-09-08T17:09:39.899Z,25.60
2018-09-08T17:14:33.471Z,19.90
2018-09-08T17:19:26.427Z,20.88
2018-09-08T17:24:19.485Z,18.70
2018-09-08T17:29:12.703Z,22.05
2018-09-08T17:34:05.842Z,22.65
2018-09-08T17:38:59.017Z,27.58
2018-09-08T17:43:52.106Z,24.72
2018-09-08T17:48:45.242Z,22.35
2018-09-08T17:53:38.373Z,21.23
2018-09-08T17:58:31.493Z,19.42
2018-09-08T18:03:24.583Z,26.27
2018-09-08T18:08:19.268Z,24.60
2018-09-08T18:13:12.397Z,17.67
2018-09-08T18:18:05.427Z,21.23
2018-09-08T18:22:58.579Z,18.60
2018-09-08T18:27:51.627Z,16.75
2018-09-08T18:32:44.960Z,18.15
2018-09-08T18:37:37.935Z,19.62
2018-09-08T18:42:31.022Z,20.25
2018-09-08T18:47:24.151Z,18.85
2018-09-08T18:52:17.199Z,16.05
2018-09-08T18:57:10.177Z,16.95
2018-09-08T19:02:03.273Z,17.25
2018-09-08T19:06:56.430Z,17.57
2018-09-08T19:11:49.500Z,15.20
2018-09-08T19:16:42.508Z,18.85
2018-09-08T19:21:35.506Z,16.42
2018-09-08T19:26:28.519Z,15.50
2018-09-08T19:31:21.417Z,14.38
2018-09-08T19:36:14.449Z,14.63
2018-09-08T19:41:07.531Z,12.18
2018-09-08T19:46:04.958Z,14.33
2018-09-08T19:50:57.899Z,12.88
2018-09-08T19:55:50.889Z,14.05
2018-09-08T20:00:43.855Z,16.10
2018-09-08T20:05:37.332Z,14.25
2018-09-08T20:10:30.322Z,15.20
2018-09-08T20:15:23.607Z,14.73
2018-09-08T20:20:17.143Z,15.40
2018-09-08T20:25:10.382Z,15.03
2018-09-08T20:30:03.427Z,13.15
2018-09-08T20:34:56.455Z,13.45
2018-09-08T20:39:53.680Z,20.02
2018-09-08T20:44:46.719Z,13.90
2018-09-08T20:49:39.737Z,18.73
2018-09-08T20:54:32.755Z,14.30
2018-09-08T20:59:25.782Z,13.80
2018-09-08T21:04:18.884Z,17.65
2018-09-08T21:09:11.830Z,15.05
2018-09-08T21:14:04.750Z,15.18
2018-09-08T21:18:57.827Z,14.80
2018-09-08T21:23:50.874Z,15.30
2018-09-08T21:28:43.980Z,15.65
2018-09-08T21:33:37.198Z,15.23
2018-09-08T21:38:30.242Z,17.02
2018-09-08T21:43:23.225Z,17.62
2018-09-08T21:48:16.310Z,15.75
2018-09-08T21:53:09.511Z,18.23
2018-09-08T21:58:02.434Z,18.35
2018-09-08T22:02:56.155Z,17.48
2018-09-08T22:07:49.267Z,18.07
2018-09-08T22:12:42.302Z,19.87
2018-09-08T22:17:35.368Z,16.32
2018-09-08T22:22:28.449Z,19.25
2018-09-08T22:27:21.341Z,15.03
2018-09-08T22:32:14.381Z,18.15
2018-09-08T22:37:07.581Z,15.95
2018-09-08T22:42:00.703Z,16.37
2018-09-08T22:46:53.659Z,16.73
2018-09-08T22:51:46.652Z,17.52
2018-09-08T22:56:39.768Z,20.10
2018-09-08T23:01:32.736Z,18.15
2018-09-08T23:06:26.191Z,15.70
2018-09-08T23:11:19.202Z,17.70
2018-09-08T23:16:12.134Z,15.05
2018-09-08T23:21:05.346Z,16.97
2018-09-08T23:25:58.338Z,16.00
2018-09-08T23:30:51.478Z,15.72
2018-09-08T23:35:44.394Z,16.80
2018-09-08T23:40:37.419Z,16.52
2018-09-08T23:45:30.394Z,16.23
2018-09-08T23:50:23.489Z,15.98
2018-09-08T23:55:16.532Z,16.77
